sensor_id;sensor_type;location;lat;lon;timestamp;pressure;altitude;pressure_sealevel;temperature;humidity
37904;BME280;23738;50.422;18.758;2022-08-01T00:00:41;98318.45;;;14.12;79.75
37904;BME280;23738;50.422;18.758;2022-08-01T00:03:07;98316.97;;;14.07;79.72
37904;BME280;23738;50.422;18.758;2022-08-01T00:05:33;98311.58;;;14.05;79.75
37904;BME280;23738;50.422;18.758;2022-08-01T00:07:59;98306.74;;;14.02;79.68
37904;BME280;23738;50.422;18.758;2022-08-01T00:10:25;98310.36;;;13.98;79.58
37904;BME280;23738;50.422;18.758;2022-08-01T00:12:51;98311.78;;;13.92;79.56
37904;BME280;23738;50.422;18.758;2022-08-01T00:15:17;98309.00;;;13.87;79.55
37904;BME280;23738;50.422;18.758;2022-08-01T00:17:44;98307.53;;;13.82;79.51
37904;BME280;23738;50.422;18.758;2022-08-01T00:20:12;98306.67;;;13.78;79.54
37904;BME280;23738;50.422;18.758;2022-08-01T00:22:39;98309.76;;;13.75;79.54
37904;BME280;23738;50.422;18.758;2022-08-01T00:25:06;98306.52;;;13.73;79.50
37904;BME280;23738;50.422;18.758;2022-08-01T00:27:32;98305.06;;;13.68;79.47
37904;BME280;23738;50.422;18.758;2022-08-01T00:29:58;98300.19;;;13.65;79.45
37904;BME280;23738;50.422;18.758;2022-08-01T00:32:24;98296.30;;;13.59;79.47
37904;BME280;23738;50.422;18.758;2022-08-01T00:34:50;98294.67;;;13.58;79.57
37904;BME280;23738;50.422;18.758;2022-08-01T00:37:16;98294.97;;;13.59;79.50
37904;BME280;23738;50.422;18.758;2022-08-01T00:39:42;98290.19;;;13.49;79.38
37904;BME280;23738;50.422;18.758;2022-08-01T00:42:12;98290.19;;;13.49;79.38
37904;BME280;23738;50.422;18.758;2022-08-01T00:44:39;98287.70;;;13.45;79.41
37904;BME280;23738;50.422;18.758;2022-08-01T00:47:05;98291.61;;;13.43;79.32
37904;BME280;23738;50.422;18.758;2022-08-01T00:49:32;98296.48;;;13.36;79.37
37904;BME280;23738;50.422;18.758;2022-08-01T00:51:58;98286.47;;;13.29;79.39
37904;BME280;23738;50.422;18.758;2022-08-01T00:54:25;98296.65;;;13.32;79.39
37904;BME280;23738;50.422;18.758;2022-08-01T00:56:52;98297.89;;;13.30;79.33
37904;BME280;23738;50.422;18.758;2022-08-01T00:59:21;98291.64;;;13.24;79.31
37904;BME280;23738;50.422;18.758;2022-08-01T01:01:48;98298.70;;;13.21;79.35
37904;BME280;23738;50.422;18.758;2022-08-01T01:04:14;98292.75;;;13.17;79.38
37904;BME280;23738;50.422;18.758;2022-08-01T01:06:54;98296.43;;;13.16;79.47
37904;BME280;23738;50.422;18.758;2022-08-01T01:09:30;98288.77;;;13.17;79.50
37904;BME280;23738;50.422;18.758;2022-08-01T01:12:13;98291.13;;;13.16;79.50
37904;BME280;23738;50.422;18.758;2022-08-01T01:17:55;98291.14;;;13.09;79.45
37904;BME280;23738;50.422;18.758;2022-08-01T01:20:25;98289.98;;;13.05;79.47
37904;BME280;23738;50.422;18.758;2022-08-01T01:29:13;98286.37;;;12.99;79.47
37904;BME280;23738;50.422;18.758;2022-08-01T01:31:50;98280.70;;;12.96;79.47
37904;BME280;23738;50.422;18.758;2022-08-01T01:34:27;98277.39;;;12.91;79.54
37904;BME280;23738;50.422;18.758;2022-08-01T01:36:54;98280.77;;;12.89;79.53
37904;BME280;23738;50.422;18.758;2022-08-01T01:39:24;98280.47;;;12.88;79.53
37904;BME280;23738;50.422;18.758;2022-08-01T01:41:52;98272.52;;;12.88;79.63
37904;BME280;23738;50.422;18.758;2022-08-01T01:44:19;98273.41;;;12.91;79.52
37904;BME280;23738;50.422;18.758;2022-08-01T01:46:46;98273.84;;;12.88;79.47
37904;BME280;23738;50.422;18.758;2022-08-01T01:49:13;98275.55;;;12.83;79.43
37904;BME280;23738;50.422;18.758;2022-08-01T01:51:40;98276.19;;;12.78;79.49
37904;BME280;23738;50.422;18.758;2022-08-01T01:54:09;98277.51;;;12.78;79.58
37904;BME280;23738;50.422;18.758;2022-08-01T01:56:35;98279.44;;;12.80;79.60
37904;BME280;23738;50.422;18.758;2022-08-01T01:59:04;98275.24;;;12.82;79.53
37904;BME280;23738;50.422;18.758;2022-08-01T02:01:31;98268.53;;;12.79;79.46
37904;BME280;23738;50.422;18.758;2022-08-01T02:03:59;98272.16;;;12.76;79.40
37904;BME280;23738;50.422;18.758;2022-08-01T02:06:28;98268.52;;;12.70;79.34
37904;BME280;23738;50.422;18.758;2022-08-01T02:08:55;98267.05;;;12.65;79.41
37904;BME280;23738;50.422;18.758;2022-08-01T02:11:21;98266.45;;;12.63;79.49
37904;BME280;23738;50.422;18.758;2022-08-01T02:13:53;98272.05;;;12.64;79.48
37904;BME280;23738;50.422;18.758;2022-08-01T02:16:26;98274.40;;;12.63;79.49
37904;BME280;23738;50.422;18.758;2022-08-01T02:18:54;98271.75;;;12.63;79.45
37904;BME280;23738;50.422;18.758;2022-08-01T02:21:37;98280.16;;;12.60;79.36
37904;BME280;23738;50.422;18.758;2022-08-01T02:24:24;98282.11;;;12.55;79.39
37904;BME280;23738;50.422;18.758;2022-08-01T02:27:15;98278.66;;;12.55;79.49
37904;BME280;23738;50.422;18.758;2022-08-01T02:29:50;98281.30;;;12.55;79.52
37904;BME280;23738;50.422;18.758;2022-08-01T02:32:39;98278.66;;;12.55;79.50
37904;BME280;23738;50.422;18.758;2022-08-01T02:35:13;98277.54;;;12.53;79.45
37904;BME280;23738;50.422;18.758;2022-08-01T02:37:41;98275.86;;;12.50;79.44
37904;BME280;23738;50.422;18.758;2022-08-01T02:40:09;98278.63;;;12.46;79.44
37904;BME280;23738;50.422;18.758;2022-08-01T02:42:38;98273.48;;;12.42;79.47
37904;BME280;23738;50.422;18.758;2022-08-01T02:45:09;98275.70;;;12.45;79.51
37904;BME280;23738;50.422;18.758;2022-08-01T02:47:37;98277.60;;;12.47;79.54
37904;BME280;23738;50.422;18.758;2022-08-01T02:50:05;98278.63;;;12.46;79.43
37904;BME280;23738;50.422;18.758;2022-08-01T02:52:34;98277.97;;;12.41;79.43
37904;BME280;23738;50.422;18.758;2022-08-01T02:55:01;98281.80;;;12.36;79.41
37904;BME280;23738;50.422;18.758;2022-08-01T02:57:28;98274.66;;;12.37;79.50
37904;BME280;23738;50.422;18.758;2022-08-01T02:59:57;98278.33;;;12.36;79.46
37904;BME280;23738;50.422;18.758;2022-08-01T03:02:24;98278.03;;;12.35;79.46
37904;BME280;23738;50.422;18.758;2022-08-01T03:04:52;98285.37;;;12.33;79.40
37904;BME280;23738;50.422;18.758;2022-08-01T03:07:19;98276.52;;;12.30;79.38
37904;BME280;23738;50.422;18.758;2022-08-01T03:09:47;98287.98;;;12.23;79.31
37904;BME280;23738;50.422;18.758;2022-08-01T03:12:19;98283.25;;;12.16;79.31
37904;BME280;23738;50.422;18.758;2022-08-01T03:14:50;98284.22;;;12.13;79.40
37904;BME280;23738;50.422;18.758;2022-08-01T03:17:19;98277.30;;;12.12;79.47
37904;BME280;23738;50.422;18.758;2022-08-01T03:19:48;98280.75;;;12.12;79.48
37904;BME280;23738;50.422;18.758;2022-08-01T03:22:15;98274.34;;;12.11;79.52
37904;BME280;23738;50.422;18.758;2022-08-01T03:24:44;98271.40;;;12.10;79.53
37904;BME280;23738;50.422;18.758;2022-08-01T03:27:13;98272.00;;;12.12;79.52
37904;BME280;23738;50.422;18.758;2022-08-01T03:29:41;98272.93;;;12.08;79.47
37904;BME280;23738;50.422;18.758;2022-08-01T03:32:09;98280.16;;;12.10;79.49
37904;BME280;23738;50.422;18.758;2022-08-01T03:34:35;98278.53;;;12.09;79.57
37904;BME280;23738;50.422;18.758;2022-08-01T03:37:07;98273.84;;;12.11;79.62
37904;BME280;23738;50.422;18.758;2022-08-01T03:39:44;98277.59;;;12.13;79.57
37904;BME280;23738;50.422;18.758;2022-08-01T03:42:16;98276.18;;;12.10;79.53
37904;BME280;23738;50.422;18.758;2022-08-01T03:44:47;98279.85;;;12.09;79.61
37904;BME280;23738;50.422;18.758;2022-08-01T03:47:16;98275.67;;;12.11;79.71
37904;BME280;23738;50.422;18.758;2022-08-01T03:49:44;98278.17;;;12.15;79.74
37904;BME280;23738;50.422;18.758;2022-08-01T03:52:12;98282.54;;;12.18;79.73
37904;BME280;23738;50.422;18.758;2022-08-01T03:54:46;98279.17;;;12.20;79.72
37904;BME280;23738;50.422;18.758;2022-08-01T03:57:14;98281.81;;;12.20;79.72
37904;BME280;23738;50.422;18.758;2022-08-01T03:59:41;98291.80;;;12.18;79.69
37904;BME280;23738;50.422;18.758;2022-08-01T04:02:08;98297.41;;;12.19;79.75
37904;BME280;23738;50.422;18.758;2022-08-01T04:04:35;98291.36;;;12.21;79.82
37904;BME280;23738;50.422;18.758;2022-08-01T04:07:01;98297.86;;;12.25;79.92
37904;BME280;23738;50.422;18.758;2022-08-01T04:09:32;98302.73;;;12.29;79.98
37904;BME280;23738;50.422;18.758;2022-08-01T04:11:59;98292.72;;;12.31;79.98
37904;BME280;23738;50.422;18.758;2022-08-01T04:14:26;98299.73;;;12.34;80.14
37904;BME280;23738;50.422;18.758;2022-08-01T04:16:56;98302.11;;;12.42;80.30
37904;BME280;23738;50.422;18.758;2022-08-01T04:19:21;98297.66;;;12.52;80.46
37904;BME280;23738;50.422;18.758;2022-08-01T04:21:47;98297.82;;;12.66;80.53
37904;BME280;23738;50.422;18.758;2022-08-01T04:24:16;98299.22;;;12.78;80.64
37904;BME280;23738;50.422;18.758;2022-08-01T04:26:44;98294.84;;;12.90;80.74
37904;BME280;23738;50.422;18.758;2022-08-01T04:29:13;98302.94;;;13.04;80.85
37904;BME280;23738;50.422;18.758;2022-08-01T04:31:43;98300.98;;;13.18;81.01
37904;BME280;23738;50.422;18.758;2022-08-01T04:34:12;98296.55;;;13.48;81.15
37904;BME280;23738;50.422;18.758;2022-08-01T04:36:40;98296.55;;;13.48;81.15
37904;BME280;23738;50.422;18.758;2022-08-01T04:39:07;98299.63;;;13.63;81.58
37904;BME280;23738;50.422;18.758;2022-08-01T04:41:34;98302.22;;;13.82;81.87
37904;BME280;23738;50.422;18.758;2022-08-01T04:44:02;98301.28;;;13.97;81.96
37904;BME280;23738;50.422;18.758;2022-08-01T04:46:29;98293.95;;;14.10;82.07
37904;BME280;23738;50.422;18.758;2022-08-01T04:48:55;98291.97;;;14.27;82.20
37904;BME280;23738;50.422;18.758;2022-08-01T04:51:22;98290.86;;;14.69;82.44
37904;BME280;23738;50.422;18.758;2022-08-01T04:53:48;98290.86;;;14.69;82.44
37904;BME280;23738;50.422;18.758;2022-08-01T04:56:17;98287.66;;;14.93;82.92
37904;BME280;23738;50.422;18.758;2022-08-01T04:58:43;98289.16;;;15.12;82.96
37904;BME280;23738;50.422;18.758;2022-08-01T05:01:10;98291.67;;;15.30;83.13
37904;BME280;23738;50.422;18.758;2022-08-01T05:03:37;98287.48;;;15.49;83.26
37904;BME280;23738;50.422;18.758;2022-08-01T05:06:03;98283.70;;;15.71;83.45
37904;BME280;23738;50.422;18.758;2022-08-01T05:08:29;98286.20;;;15.91;83.54
37904;BME280;23738;50.422;18.758;2022-08-01T05:10:55;98289.18;;;16.09;83.52
37904;BME280;23738;50.422;18.758;2022-08-01T05:13:21;98282.82;;;16.27;83.73
37904;BME280;23738;50.422;18.758;2022-08-01T05:15:47;98281.45;;;16.41;83.64
37904;BME280;23738;50.422;18.758;2022-08-01T05:18:13;98278.20;;;16.56;83.81
37904;BME280;23738;50.422;18.758;2022-08-01T05:20:39;98281.45;;;16.74;83.89
37904;BME280;23738;50.422;18.758;2022-08-01T05:23:06;98275.81;;;16.90;83.88
37904;BME280;23738;50.422;18.758;2022-08-01T05:25:32;98275.78;;;17.09;83.88
37904;BME280;23738;50.422;18.758;2022-08-01T05:27:58;98273.63;;;17.28;83.97
37904;BME280;23738;50.422;18.758;2022-08-01T05:30:25;98268.78;;;17.47;83.88
37904;BME280;23738;50.422;18.758;2022-08-01T05:32:50;98270.08;;;17.64;83.83
37904;BME280;23738;50.422;18.758;2022-08-01T05:35:17;98272.91;;;17.81;83.71
37904;BME280;23738;50.422;18.758;2022-08-01T05:37:42;98271.22;;;18.00;83.56
37904;BME280;23738;50.422;18.758;2022-08-01T05:40:09;98278.88;;;18.18;83.53
37904;BME280;23738;50.422;18.758;2022-08-01T05:42:36;98277.42;;;18.34;83.36
37904;BME280;23738;50.422;18.758;2022-08-01T05:45:02;98286.06;;;18.47;83.16
37904;BME280;23738;50.422;18.758;2022-08-01T05:47:28;98284.61;;;18.63;83.36
37904;BME280;23738;50.422;18.758;2022-08-01T05:49:53;98283.66;;;18.80;82.91
37904;BME280;23738;50.422;18.758;2022-08-01T05:52:19;98286.09;;;18.86;82.60
37904;BME280;23738;50.422;18.758;2022-08-01T05:54:45;98280.53;;;18.95;82.47
37904;BME280;23738;50.422;18.758;2022-08-01T05:59:38;98286.31;;;19.27;82.47
37904;BME280;23738;50.422;18.758;2022-08-01T06:02:04;98289.41;;;19.53;82.51
37904;BME280;23738;50.422;18.758;2022-08-01T06:04:30;98292.16;;;19.78;82.38
37904;BME280;23738;50.422;18.758;2022-08-01T06:06:56;98292.46;;;20.05;82.08
37904;BME280;23738;50.422;18.758;2022-08-01T06:09:21;98293.81;;;20.20;81.81
37904;BME280;23738;50.422;18.758;2022-08-01T06:11:47;98302.14;;;20.11;81.19
37904;BME280;23738;50.422;18.758;2022-08-01T06:14:13;98299.97;;;19.95;80.91
37904;BME280;23738;50.422;18.758;2022-08-01T06:16:39;98307.73;;;19.97;81.04
37904;BME280;23738;50.422;18.758;2022-08-01T06:19:05;98306.17;;;20.11;80.98
37904;BME280;23738;50.422;18.758;2022-08-01T06:21:31;98298.67;;;20.25;80.74
37904;BME280;23738;50.422;18.758;2022-08-01T06:23:57;98304.86;;;20.46;80.64
37904;BME280;23738;50.422;18.758;2022-08-01T06:26:23;98297.61;;;20.59;80.35
37904;BME280;23738;50.422;18.758;2022-08-01T06:28:49;98297.60;;;20.80;80.31
37904;BME280;23738;50.422;18.758;2022-08-01T06:31:15;98294.60;;;21.04;79.73
37904;BME280;23738;50.422;18.758;2022-08-01T06:33:41;98300.52;;;21.06;79.58
37904;BME280;23738;50.422;18.758;2022-08-01T06:36:06;98296.20;;;21.03;79.59
37904;BME280;23738;50.422;18.758;2022-08-01T06:38:32;98290.30;;;21.03;79.10
37904;BME280;23738;50.422;18.758;2022-08-01T06:40:58;98304.00;;;21.04;78.96
37904;BME280;23738;50.422;18.758;2022-08-01T06:43:24;98301.02;;;21.11;78.64
37904;BME280;23738;50.422;18.758;2022-08-01T06:45:49;98305.31;;;21.09;78.17
37904;BME280;23738;50.422;18.758;2022-08-01T06:48:15;98300.78;;;21.05;77.80
37904;BME280;23738;50.422;18.758;2022-08-01T06:50:41;98299.67;;;21.08;77.88
37904;BME280;23738;50.422;18.758;2022-08-01T06:53:07;98302.10;;;21.17;77.67
37904;BME280;23738;50.422;18.758;2022-08-01T06:55:33;98299.95;;;21.22;77.48
37904;BME280;23738;50.422;18.758;2022-08-01T06:57:59;98294.86;;;21.23;77.07
37904;BME280;23738;50.422;18.758;2022-08-01T07:00:25;98297.78;;;21.24;76.67
37904;BME280;23738;50.422;18.758;2022-08-01T07:02:55;98294.59;;;21.22;76.56
37904;BME280;23738;50.422;18.758;2022-08-01T07:05:22;98295.92;;;21.17;76.01
37904;BME280;23738;50.422;18.758;2022-08-01T07:07:49;98292.16;;;21.18;75.84
37904;BME280;23738;50.422;18.758;2022-08-01T07:10:15;98296.67;;;21.37;75.90
37904;BME280;23738;50.422;18.758;2022-08-01T07:12:41;98301.83;;;21.81;76.21
37904;BME280;23738;50.422;18.758;2022-08-01T07:15:09;98297.77;;;22.32;76.11
37904;BME280;23738;50.422;18.758;2022-08-01T07:17:41;98296.04;;;22.46;74.48
37904;BME280;23738;50.422;18.758;2022-08-01T07:20:09;98293.69;;;22.37;74.11
37904;BME280;23738;50.422;18.758;2022-08-01T07:22:37;98291.06;;;22.27;73.69
37904;BME280;23738;50.422;18.758;2022-08-01T07:25:05;98294.13;;;22.16;73.41
37904;BME280;23738;50.422;18.758;2022-08-01T07:27:31;98294.98;;;22.08;73.21
37904;BME280;23738;50.422;18.758;2022-08-01T07:29:57;98298.75;;;22.07;73.18
37904;BME280;23738;50.422;18.758;2022-08-01T07:32:23;98292.08;;;22.02;73.10
37904;BME280;23738;50.422;18.758;2022-08-01T07:34:49;98291.00;;;22.01;72.67
37904;BME280;23738;50.422;18.758;2022-08-01T07:37:15;98290.20;;;21.98;72.68
37904;BME280;23738;50.422;18.758;2022-08-01T07:39:40;98291.27;;;21.99;72.76
37904;BME280;23738;50.422;18.758;2022-08-01T07:42:06;98289.39;;;22.00;72.61
37904;BME280;23738;50.422;18.758;2022-08-01T07:44:32;98294.19;;;22.05;72.96
37904;BME280;23738;50.422;18.758;2022-08-01T07:46:58;98296.28;;;22.16;72.81
37904;BME280;23738;50.422;18.758;2022-08-01T07:49:24;98289.23;;;22.23;72.11
37904;BME280;23738;50.422;18.758;2022-08-01T07:51:50;98292.99;;;22.24;71.98
37904;BME280;23738;50.422;18.758;2022-08-01T07:54:15;98290.50;;;22.33;71.89
37904;BME280;23738;50.422;18.758;2022-08-01T07:56:41;98291.46;;;22.47;71.89
37904;BME280;23738;50.422;18.758;2022-08-01T07:59:07;98288.63;;;22.62;71.54
37904;BME280;23738;50.422;18.758;2022-08-01T08:01:33;98290.12;;;22.78;71.29
37904;BME280;23738;50.422;18.758;2022-08-01T08:03:59;98288.16;;;22.86;70.77
37904;BME280;23738;50.422;18.758;2022-08-01T08:06:25;98291.33;;;22.94;71.13
37904;BME280;23738;50.422;18.758;2022-08-01T08:08:50;98295.28;;;23.01;70.93
37904;BME280;23738;50.422;18.758;2022-08-01T08:11:18;98297.55;;;23.15;71.09
37904;BME280;23738;50.422;18.758;2022-08-01T08:13:44;98291.58;;;23.21;70.38
37904;BME280;23738;50.422;18.758;2022-08-01T08:16:10;98298.31;;;23.21;69.80
37904;BME280;23738;50.422;18.758;2022-08-01T08:18:36;98296.97;;;23.21;69.57
37904;BME280;23738;50.422;18.758;2022-08-01T08:21:03;98295.36;;;23.20;69.75
37904;BME280;23738;50.422;18.758;2022-08-01T08:23:29;98302.30;;;23.23;68.89
37904;BME280;23738;50.422;18.758;2022-08-01T08:26:13;98303.48;;;23.15;68.94
37904;BME280;23738;50.422;18.758;2022-08-01T08:28:39;98303.56;;;23.07;68.74
37904;BME280;23738;50.422;18.758;2022-08-01T08:31:05;98304.41;;;23.05;68.92
37904;BME280;23738;50.422;18.758;2022-08-01T08:33:31;98308.14;;;23.07;68.81
37904;BME280;23738;50.422;18.758;2022-08-01T08:35:57;98307.03;;;23.13;68.55
37904;BME280;23738;50.422;18.758;2022-08-01T08:38:22;98311.00;;;23.18;68.01
37904;BME280;23738;50.422;18.758;2022-08-01T08:40:50;98308.81;;;23.22;67.90
37904;BME280;23738;50.422;18.758;2022-08-01T08:43:17;98314.94;;;23.28;68.01
37904;BME280;23738;50.422;18.758;2022-08-01T08:45:44;98317.83;;;23.34;67.99
37904;BME280;23738;50.422;18.758;2022-08-01T08:48:12;98320.67;;;23.45;67.77
37904;BME280;23738;50.422;18.758;2022-08-01T08:50:38;98321.17;;;23.50;67.40
37904;BME280;23738;50.422;18.758;2022-08-01T08:53:09;98320.62;;;23.50;67.11
37904;BME280;23738;50.422;18.758;2022-08-01T08:55:35;98327.38;;;23.50;67.15
37904;BME280;23738;50.422;18.758;2022-08-01T08:58:03;98325.20;;;23.47;66.77
37904;BME280;23738;50.422;18.758;2022-08-01T09:00:32;98324.72;;;23.45;66.84
37904;BME280;23738;50.422;18.758;2022-08-01T09:02:59;98323.06;;;23.49;66.94
37904;BME280;23738;50.422;18.758;2022-08-01T09:05:25;98326.80;;;23.53;66.54
37904;BME280;23738;50.422;18.758;2022-08-01T09:07:51;98328.36;;;23.57;66.49
37904;BME280;23738;50.422;18.758;2022-08-01T09:10:18;98333.40;;;23.63;66.55
37904;BME280;23738;50.422;18.758;2022-08-01T09:13:01;98337.25;;;23.79;66.28
37904;BME280;23738;50.422;18.758;2022-08-01T09:15:44;98332.33;;;23.86;66.00
37904;BME280;23738;50.422;18.758;2022-08-01T09:18:34;98330.88;;;23.93;65.84
37904;BME280;23738;50.422;18.758;2022-08-01T09:21:18;98331.20;;;24.08;65.93
37904;BME280;23738;50.422;18.758;2022-08-01T09:23:52;98337.23;;;24.21;65.71
37904;BME280;23738;50.422;18.758;2022-08-01T09:26:21;98327.95;;;24.46;65.55
37904;BME280;23738;50.422;18.758;2022-08-01T09:28:56;98336.45;;;24.72;64.53
37904;BME280;23738;50.422;18.758;2022-08-01T09:31:22;98335.70;;;24.83;64.01
37904;BME280;23738;50.422;18.758;2022-08-01T09:33:53;98331.84;;;24.89;63.54
37904;BME280;23738;50.422;18.758;2022-08-01T09:39:14;98329.45;;;25.31;63.56
37904;BME280;23738;50.422;18.758;2022-08-01T09:41:41;98337.22;;;25.48;63.11
37904;BME280;23738;50.422;18.758;2022-08-01T09:44:06;98328.12;;;25.44;62.06
37904;BME280;23738;50.422;18.758;2022-08-01T09:46:32;98333.58;;;25.42;61.99
37904;BME280;23738;50.422;18.758;2022-08-01T09:49:01;98333.13;;;25.51;61.88
37904;BME280;23738;50.422;18.758;2022-08-01T09:51:33;98330.81;;;25.58;62.16
37904;BME280;23738;50.422;18.758;2022-08-01T09:54:04;98327.59;;;25.59;61.85
37904;BME280;23738;50.422;18.758;2022-08-01T09:56:39;98333.28;;;25.71;61.66
37904;BME280;23738;50.422;18.758;2022-08-01T09:59:11;98331.84;;;25.87;62.11
37904;BME280;23738;50.422;18.758;2022-08-01T10:01:45;98329.14;;;26.01;61.83
37904;BME280;23738;50.422;18.758;2022-08-01T10:04:21;98331.37;;;26.10;61.24
37904;BME280;23738;50.422;18.758;2022-08-01T10:06:49;98332.66;;;26.26;61.15
37904;BME280;23738;50.422;18.758;2022-08-01T10:09:27;98331.98;;;26.32;60.84
37904;BME280;23738;50.422;18.758;2022-08-01T10:11:55;98332.53;;;26.31;60.60
37904;BME280;23738;50.422;18.758;2022-08-01T10:14:25;98331.30;;;26.26;60.00
37904;BME280;23738;50.422;18.758;2022-08-01T10:16:53;98327.24;;;26.26;59.66
37904;BME280;23738;50.422;18.758;2022-08-01T10:19:26;98335.41;;;26.35;59.97
37904;BME280;23738;50.422;18.758;2022-08-01T10:21:54;98339.41;;;26.37;59.51
37904;BME280;23738;50.422;18.758;2022-08-01T10:24:22;98338.13;;;26.46;59.82
37904;BME280;23738;50.422;18.758;2022-08-01T10:26:51;98336.70;;;26.59;59.67
37904;BME280;23738;50.422;18.758;2022-08-01T10:29:20;98334.06;;;26.68;59.63
37904;BME280;23738;50.422;18.758;2022-08-01T10:31:47;98336.97;;;26.72;59.85
37904;BME280;23738;50.422;18.758;2022-08-01T10:34:13;98336.85;;;26.65;59.23
37904;BME280;23738;50.422;18.758;2022-08-01T10:36:46;98339.61;;;26.52;58.94
37904;BME280;23738;50.422;18.758;2022-08-01T10:39:13;98341.25;;;26.28;58.38
37904;BME280;23738;50.422;18.758;2022-08-01T10:41:39;98342.20;;;26.10;58.45
37904;BME280;23738;50.422;18.758;2022-08-01T10:44:07;98336.50;;;25.98;58.39
37904;BME280;23738;50.422;18.758;2022-08-01T10:46:39;98339.92;;;25.89;58.66
37904;BME280;23738;50.422;18.758;2022-08-01T10:49:15;98336.71;;;25.87;58.80
37904;BME280;23738;50.422;18.758;2022-08-01T10:51:39;98340.04;;;25.84;58.91
37904;BME280;23738;50.422;18.758;2022-08-01T10:54:08;98333.53;;;25.85;59.05
37904;BME280;23738;50.422;18.758;2022-08-01T10:56:47;98330.66;;;25.93;58.99
37904;BME280;23738;50.422;18.758;2022-08-01T10:59:23;98327.95;;;26.04;59.04
37904;BME280;23738;50.422;18.758;2022-08-01T11:02:04;98332.30;;;26.16;58.40
37904;BME280;23738;50.422;18.758;2022-08-01T11:04:41;98331.87;;;26.23;58.56
37904;BME280;23738;50.422;18.758;2022-08-01T11:07:13;98337.21;;;26.39;58.43
37904;BME280;23738;50.422;18.758;2022-08-01T11:09:43;98337.09;;;26.55;58.24
37904;BME280;23738;50.422;18.758;2022-08-01T11:12:15;98330.97;;;26.83;58.19
37904;BME280;23738;50.422;18.758;2022-08-01T11:17:39;98327.88;;;27.10;57.73
37904;BME280;23738;50.422;18.758;2022-08-01T11:20:15;98334.05;;;27.13;57.73
37904;BME280;23738;50.422;18.758;2022-08-01T11:30:54;98329.41;;;27.33;56.48
37904;BME280;23738;50.422;18.758;2022-08-01T11:38:47;98328.33;;;27.54;56.00
37904;BME280;23738;50.422;18.758;2022-08-01T11:41:16;98324.36;;;27.60;55.94
37904;BME280;23738;50.422;18.758;2022-08-01T11:47:02;98318.74;;;27.85;55.52
37904;BME280;23738;50.422;18.758;2022-08-01T11:49:43;98319.46;;;27.96;55.62
37904;BME280;23738;50.422;18.758;2022-08-01T11:52:18;98321.86;;;27.98;55.45
37904;BME280;23738;50.422;18.758;2022-08-01T11:54:53;98315.58;;;28.08;57.18
37904;BME280;23738;50.422;18.758;2022-08-01T11:57:24;98310.39;;;28.35;55.58
37904;BME280;23738;50.422;18.758;2022-08-01T11:59:53;98318.47;;;28.29;54.57
37904;BME280;23738;50.422;18.758;2022-08-01T12:02:26;98311.44;;;28.28;54.77
37904;BME280;23738;50.422;18.758;2022-08-01T12:07:35;98313.09;;;28.52;53.98
37904;BME280;23738;50.422;18.758;2022-08-01T12:10:04;98307.02;;;28.64;54.00
37904;BME280;23738;50.422;18.758;2022-08-01T12:12:33;98307.56;;;28.72;53.88
37904;BME280;23738;50.422;18.758;2022-08-01T12:15:06;98303.95;;;28.66;53.64
37904;BME280;23738;50.422;18.758;2022-08-01T12:17:38;98303.64;;;28.67;53.29
37904;BME280;23738;50.422;18.758;2022-08-01T12:20:08;98305.42;;;28.63;53.29
37904;BME280;23738;50.422;18.758;2022-08-01T12:22:36;98298.14;;;28.78;53.18
37904;BME280;23738;50.422;18.758;2022-08-01T12:27:36;98297.61;;;28.93;52.55
37904;BME280;23738;50.422;18.758;2022-08-01T12:30:06;98298.44;;;28.85;52.69
37904;BME280;23738;50.422;18.758;2022-08-01T12:32:38;98284.36;;;28.83;52.55
37904;BME280;23738;50.422;18.758;2022-08-01T12:35:16;98297.80;;;28.88;52.83
37904;BME280;23738;50.422;18.758;2022-08-01T12:37:56;98301.20;;;28.91;52.92
37904;BME280;23738;50.422;18.758;2022-08-01T12:40:26;98298.36;;;29.11;52.61
37904;BME280;23738;50.422;18.758;2022-08-01T12:42:55;98298.21;;;29.22;52.38
37904;BME280;23738;50.422;18.758;2022-08-01T12:45:28;98287.72;;;29.36;52.54
37904;BME280;23738;50.422;18.758;2022-08-01T12:47:59;98292.63;;;29.57;52.18
37904;BME280;23738;50.422;18.758;2022-08-01T12:50:31;98281.97;;;29.73;52.30
37904;BME280;23738;50.422;18.758;2022-08-01T12:52:56;98282.83;;;29.85;51.99
37904;BME280;23738;50.422;18.758;2022-08-01T12:55:24;98289.28;;;29.95;51.56
37904;BME280;23738;50.422;18.758;2022-08-01T12:58:09;98287.59;;;29.97;51.04
37904;BME280;23738;50.422;18.758;2022-08-01T13:00:36;98287.03;;;29.97;50.63
37904;BME280;23738;50.422;18.758;2022-08-01T13:03:09;98280.48;;;30.04;53.29
37904;BME280;23738;50.422;18.758;2022-08-01T13:08:21;98282.73;;;30.02;50.34
37904;BME280;23738;50.422;18.758;2022-08-01T13:10:45;98279.04;;;29.78;50.11
37904;BME280;23738;50.422;18.758;2022-08-01T13:13:13;98286.39;;;29.56;50.09
37904;BME280;23738;50.422;18.758;2022-08-01T13:15:41;98283.99;;;29.55;50.17
37904;BME280;23738;50.422;18.758;2022-08-01T13:18:26;98281.19;;;29.57;50.16
37904;BME280;23738;50.422;18.758;2022-08-01T13:21:19;98278.09;;;29.67;50.55
37904;BME280;23738;50.422;18.758;2022-08-01T13:26:53;98283.88;;;29.51;50.45
37904;BME280;23738;50.422;18.758;2022-08-01T13:29:21;98283.88;;;29.37;50.27
37904;BME280;23738;50.422;18.758;2022-08-01T13:31:57;98280.37;;;29.27;50.32
37904;BME280;23738;50.422;18.758;2022-08-01T13:34:32;98279.97;;;29.23;50.33
37904;BME280;23738;50.422;18.758;2022-08-01T13:36:59;98279.66;;;29.24;50.01
37904;BME280;23738;50.422;18.758;2022-08-01T13:39:30;98274.48;;;29.17;50.13
37904;BME280;23738;50.422;18.758;2022-08-01T13:42:06;98280.52;;;29.08;50.22
37904;BME280;23738;50.422;18.758;2022-08-01T13:44:33;98278.02;;;28.94;50.12